createdAt,value
2023-03-03T05:50:43.934Z,47.42
2023-03-03T05:53:31.794Z,51.38
2023-03-03T05:56:19.513Z,61.38
2023-03-03T05:59:14.052Z,81.32
2023-03-03T06:02:04.184Z,46.45
2023-03-03T06:04:52.036Z,42.72
2023-03-03T06:07:40.088Z,44.85
2023-03-03T06:10:28.301Z,48.13
2023-03-03T06:13:19.178Z,55.30
2023-03-03T06:16:08.691Z,42.63
2023-03-03T06:18:56.512Z,49.15
2023-03-03T06:21:44.391Z,45.83
2023-03-03T06:24:32.023Z,51.45
2023-03-03T06:27:19.950Z,47.58
2023-03-03T06:30:08.122Z,62.55
2023-03-03T06:33:06.273Z,60.47
2023-03-03T06:35:56.529Z,55.85
2023-03-03T06:38:44.942Z,91.95
2023-03-03T06:41:32.634Z,57.53
2023-03-03T06:44:20.574Z,58.88
2023-03-03T06:47:08.297Z,58.75
2023-03-03T06:49:56.184Z,64.13
2023-03-03T06:52:43.869Z,52.75
2023-03-03T06:55:31.673Z,64.55
2023-03-03T06:58:21.890Z,53.95
2023-03-03T07:01:17.176Z,58.15
2023-03-03T07:04:36.447Z,61.28
2023-03-03T07:07:26.185Z,63.60
2023-03-03T07:10:22.401Z,73.10
2023-03-03T07:13:30.246Z,70.75
2023-03-03T07:16:25.677Z,60.60
2023-03-03T07:19:33.930Z,63.75
2023-03-03T07:22:24.940Z,69.88
2023-03-03T07:25:38.673Z,75.13
2023-03-03T07:28:29.379Z,62.15
2023-03-03T07:31:31.933Z,70.07
2023-03-03T07:34:43.486Z,62.53
2023-03-03T07:37:42.842Z,66.57
2023-03-03T07:40:39.274Z,74.35
2023-03-03T07:43:32.897Z,55.65
2023-03-03T07:46:48.388Z,58.50
2023-03-03T07:49:38.017Z,72.70
2023-03-03T07:52:40.075Z,58.95
2023-03-03T07:55:35.827Z,57.80
2023-03-03T07:58:30.365Z,80.93
2023-03-03T08:01:40.805Z,75.93
2023-03-03T08:04:52.873Z,65.80
2023-03-03T08:07:41.189Z,61.13
2023-03-03T08:10:51.592Z,64.63
2023-03-03T08:13:42.288Z,62.63
2023-03-03T08:16:39.386Z,62.58
2023-03-03T08:19:29.934Z,68.25
2023-03-03T08:22:38.562Z,60.78
2023-03-03T08:25:28.811Z,73.60
2023-03-03T08:28:16.947Z,60.78
2023-03-03T08:31:16.757Z,65.13
2023-03-03T08:34:07.907Z,72.50
2023-03-03T08:36:58.494Z,57.42
2023-03-03T08:39:46.394Z,64.78
2023-03-03T08:42:34.125Z,59.85
2023-03-03T08:45:21.971Z,72.60
2023-03-03T08:48:09.731Z,53.35
2023-03-03T08:50:57.962Z,54.38
2023-03-03T08:53:45.583Z,57.70
2023-03-03T08:56:33.203Z,58.60
2023-03-03T08:59:21.048Z,67.43
2023-03-03T09:02:09.269Z,70.75
2023-03-03T09:04:57.122Z,63.17
2023-03-03T09:07:47.860Z,70.75
2023-03-03T09:10:35.988Z,69.90
2023-03-03T09:13:24.533Z,67.93
2023-03-03T09:16:16.184Z,64.07
2023-03-03T09:19:19.914Z,60.60
2023-03-03T09:22:25.312Z,66.05
2023-03-03T09:25:24.973Z,66.80
2023-03-03T09:28:33.264Z,66.00
2023-03-03T09:31:40.548Z,55.67
2023-03-03T09:34:48.691Z,64.00
2023-03-03T09:37:40.663Z,61.38
2023-03-03T09:40:55.784Z,56.30
2023-03-03T09:43:53.360Z,73.47
2023-03-03T09:47:19.997Z,72.60
2023-03-03T09:50:19.441Z,63.95
2023-03-03T09:53:28.075Z,62.83
2023-03-03T09:56:54.052Z,66.10
2023-03-03T09:59:47.844Z,56.05
2023-03-03T10:03:06.794Z,61.88
2023-03-03T10:06:05.653Z,72.13
2023-03-03T10:09:12.824Z,67.40
2023-03-03T10:12:28.760Z,65.80
2023-03-03T10:15:40.657Z,117.60
2023-03-03T10:18:51.007Z,81.35
2023-03-03T10:21:52.128Z,76.85
2023-03-03T10:24:53.272Z,66.75
2023-03-03T10:28:19.839Z,60.95
2023-03-03T10:31:18.081Z,57.60
2023-03-03T10:34:43.824Z,70.75
2023-03-03T10:37:54.238Z,62.58
2023-03-03T10:40:44.598Z,66.85
2023-03-03T10:43:59.820Z,64.65
2023-03-03T10:47:16.536Z,72.53
2023-03-03T10:50:32.787Z,58.80
2023-03-03T10:53:26.322Z,66.70
2023-03-03T10:56:53.954Z,81.45
2023-03-03T11:00:01.160Z,84.20
2023-03-03T11:03:18.518Z,65.68
2023-03-03T11:07:13.532Z,69.97
2023-03-03T11:10:09.596Z,80.45
2023-03-03T11:13:19.126Z,71.13
2023-03-03T11:16:29.376Z,73.20
2023-03-03T11:19:34.624Z,89.20
2023-03-03T11:22:48.983Z,75.13
2023-03-03T11:25:53.418Z,81.57
2023-03-03T11:28:59.796Z,79.22
2023-03-03T11:32:18.741Z,63.03
2023-03-03T11:35:09.549Z,66.85
2023-03-03T11:38:15.758Z,74.40
2023-03-03T11:41:15.811Z,71.20
2023-03-03T11:44:12.232Z,79.00
2023-03-03T11:47:09.535Z,96.45
2023-03-03T11:50:04.756Z,69.50
2023-03-03T11:53:04.194Z,64.22
2023-03-03T11:56:11.109Z,68.03
2023-03-03T11:59:04.524Z,68.82
2023-03-03T12:01:58.026Z,77.05
2023-03-03T12:04:53.615Z,74.90
2023-03-03T12:07:47.110Z,64.72
2023-03-03T12:10:48.976Z,67.15
2023-03-03T12:13:58.525Z,74.93
2023-03-03T12:16:59.332Z,59.13
2023-03-03T12:20:08.227Z,59.95
2023-03-03T12:23:12.437Z,65.03
2023-03-03T12:26:12.161Z,68.90
2023-03-03T12:29:10.084Z,65.70
2023-03-03T12:32:18.331Z,70.35
2023-03-03T12:35:21.582Z,76.80
2023-03-03T12:38:47.774Z,67.70
2023-03-03T12:41:44.055Z,67.13
2023-03-03T12:45:01.040Z,69.45
2023-03-03T12:48:00.236Z,71.30
2023-03-03T12:50:56.218Z,57.60
2023-03-03T12:53:53.558Z,58.58
2023-03-03T12:57:02.356Z,77.38
2023-03-03T13:00:08.319Z,67.30
2023-03-03T13:03:05.897Z,74.63
2023-03-03T13:06:31.439Z,67.22
2023-03-03T13:09:41.972Z,62.45
2023-03-03T13:13:09.225Z,58.28
2023-03-03T13:16:16.796Z,48.75
2023-03-03T13:19:21.327Z,54.60
2023-03-03T13:22:42.456Z,48.67
2023-03-03T13:25:50.867Z,48.83
2023-03-03T13:29:20.592Z,60.17
2023-03-03T13:32:31.345Z,60.78
2023-03-03T13:35:19.221Z,47.67
2023-03-03T13:38:11.901Z,53.40
2023-03-03T13:41:24.492Z,56.78
2023-03-03T13:47:13.568Z,56.53
2023-03-03T13:50:23.579Z,54.47
2023-03-03T13:53:27.571Z,55.20
2023-03-03T13:56:54.712Z,46.38
2023-03-03T14:00:07.157Z,51.78
2023-03-03T14:03:18.582Z,55.83
2023-03-03T14:06:14.961Z,56.28
2023-03-03T14:09:16.886Z,93.18
2023-03-03T14:12:34.816Z,88.00
2023-03-03T14:15:28.197Z,78.63
2023-03-03T14:18:18.848Z,70.65
2023-03-03T14:21:19.669Z,49.28
2023-03-03T14:24:14.968Z,48.35
2023-03-03T14:27:23.662Z,56.67
2023-03-03T14:30:37.875Z,44.17
2023-03-03T14:33:37.489Z,63.78
2023-03-03T14:36:43.972Z,53.15
2023-03-03T14:39:35.639Z,48.38
2023-03-03T14:42:39.574Z,47.25
2023-03-03T14:45:41.729Z,54.58
2023-03-03T14:48:32.292Z,56.88
2023-03-03T14:51:34.421Z,51.45
2023-03-03T14:54:26.878Z,53.78
2023-03-03T14:57:37.877Z,58.75
2023-03-03T15:00:25.468Z,47.03
2023-03-03T15:03:27.660Z,53.85
2023-03-03T15:06:48.779Z,71.72
2023-03-03T15:09:50.613Z,51.47
2023-03-03T15:12:40.959Z,52.13
2023-03-03T15:15:30.185Z,65.32
2023-03-03T15:18:21.745Z,62.28
2023-03-03T15:21:16.371Z,58.95
2023-03-03T15:24:22.594Z,70.63
2023-03-03T15:27:20.070Z,54.38
2023-03-03T15:30:50.749Z,48.78
2023-03-03T15:33:56.863Z,52.35
2023-03-03T15:37:07.036Z,48.08
2023-03-03T15:40:09.712Z,56.47
2023-03-03T15:43:01.202Z,58.17
2023-03-03T15:46:16.290Z,64.32
2023-03-03T15:49:38.360Z,54.53
2023-03-03T15:52:53.420Z,55.08
2023-03-03T15:55:56.237Z,61.05
2023-03-03T15:58:52.724Z,52.00
2023-03-03T16:02:27.932Z,57.75
2023-03-03T16:05:24.324Z,56.53
2023-03-03T16:08:23.641Z,65.93
2023-03-03T16:11:21.748Z,62.60
2023-03-03T16:14:28.379Z,62.28
2023-03-03T16:17:32.867Z,66.57
2023-03-03T16:20:41.768Z,62.80
2023-03-03T16:23:50.280Z,68.88
2023-03-03T16:26:43.563Z,63.58
2023-03-03T16:29:47.701Z,59.95
2023-03-03T16:32:46.161Z,52.42
2023-03-03T16:36:02.696Z,63.95
2023-03-03T16:39:26.792Z,66.13
2023-03-03T16:42:32.847Z,72.35
2023-03-03T16:45:26.072Z,60.35
2023-03-03T16:48:49.490Z,84.07
2023-03-03T16:51:47.015Z,109.28
2023-03-03T16:55:27.894Z,122.15
2023-03-03T16:58:33.748Z,95.82
2023-03-03T17:01:30.301Z,84.90
2023-03-03T17:04:33.423Z,109.47
2023-03-03T17:07:55.052Z,114.68
2023-03-03T17:11:02.708Z,108.88
2023-03-03T17:14:09.866Z,143.23
2023-03-03T17:16:57.514Z,205.77
2023-03-03T17:20:06.973Z,235.85
2023-03-03T17:23:07.953Z,224.43
2023-03-03T17:26:25.986Z,192.60
2023-03-03T17:29:45.068Z,177.38
2023-03-03T17:32:53.793Z,156.57
2023-03-03T17:35:56.677Z,136.25
2023-03-03T17:39:12.860Z,103.55
2023-03-03T17:42:40.080Z,95.65
2023-03-03T17:45:30.788Z,75.70
2023-03-03T17:48:51.282Z,84.82
2023-03-03T17:51:41.664Z,110.00
2023-03-03T17:54:29.311Z,96.45
2023-03-03T17:57:54.687Z,75.90
2023-03-03T18:00:54.372Z,97.05
2023-03-03T18:03:57.141Z,116.43
2023-03-03T18:07:16.572Z,130.32
2023-03-03T18:10:19.470Z,101.22
2023-03-03T18:13:29.399Z,93.35
2023-03-03T18:16:53.968Z,80.38
2023-03-03T18:19:56.790Z,91.75
2023-03-03T18:22:52.821Z,77.97
2023-03-03T18:26:34.331Z,79.60
2023-03-03T18:29:28.162Z,79.20
2023-03-03T18:32:24.189Z,79.30
2023-03-03T18:35:30.122Z,77.93
2023-03-03T18:38:26.531Z,73.85
2023-03-03T18:41:24.215Z,79.40
2023-03-03T18:44:30.968Z,75.65
2023-03-03T18:47:44.087Z,92.75
2023-03-03T18:50:49.698Z,101.95
2023-03-03T18:53:38.334Z,85.03
2023-03-03T18:56:46.814Z,86.22
2023-03-03T18:59:37.618Z,71.35
2023-03-03T19:02:34.873Z,75.35
2023-03-03T19:05:48.404Z,80.80
2023-03-03T19:08:58.159Z,79.50
2023-03-03T19:11:56.195Z,84.33
2023-03-03T19:14:48.506Z,68.55
2023-03-03T19:17:39.283Z,66.72
2023-03-03T19:20:42.829Z,75.45
2023-03-03T19:23:54.732Z,75.10
2023-03-03T19:27:00.894Z,76.65
2023-03-03T19:30:14.579Z,69.95
2023-03-03T19:33:07.874Z,68.13
2023-03-03T19:36:10.935Z,62.97
2023-03-03T19:39:20.200Z,73.55
2023-03-03T19:42:40.230Z,71.13
2023-03-03T19:45:53.440Z,63.78
2023-03-03T19:49:08.578Z,107.18
2023-03-03T19:52:05.632Z,95.15
2023-03-03T19:55:25.056Z,115.35
2023-03-03T19:58:25.808Z,96.80
2023-03-03T20:01:41.053Z,80.28
2023-03-03T20:04:52.621Z,77.75
2023-03-03T20:08:24.844Z,102.40
2023-03-03T20:11:46.441Z,99.97
2023-03-03T20:14:46.296Z,83.80
2023-03-03T20:17:43.453Z,107.18
2023-03-03T20:20:37.151Z,101.20
2023-03-03T20:23:53.964Z,75.00
2023-03-03T20:27:04.140Z,88.25
2023-03-03T20:30:13.187Z,69.13
2023-03-03T20:33:19.278Z,91.53
2023-03-03T20:36:07.126Z,101.47
2023-03-03T20:39:06.181Z,102.75
2023-03-03T20:47:35.575Z,76.05
2023-03-03T20:50:51.273Z,70.35
2023-03-03T20:54:02.728Z,73.53
2023-03-03T20:57:08.283Z,79.40
2023-03-03T21:00:27.981Z,78.10
2023-03-03T21:03:35.977Z,96.40
2023-03-03T21:06:39.067Z,108.32
2023-03-03T21:09:39.331Z,86.43
2023-03-03T21:12:31.512Z,85.22
2023-03-03T21:18:24.277Z,63.20
2023-03-03T21:21:12.119Z,81.97
2023-03-03T21:23:59.847Z,68.32
2023-03-03T21:26:56.875Z,63.10
2023-03-03T21:29:52.014Z,70.60
2023-03-03T21:32:49.333Z,88.28
2023-03-03T21:36:00.049Z,102.63
2023-03-03T21:38:48.365Z,124.13
2023-03-03T21:41:55.574Z,107.88
2023-03-03T21:44:46.987Z,97.53
2023-03-03T21:47:34.715Z,129.03
2023-03-03T21:50:22.841Z,124.75
2023-03-03T21:53:10.570Z,101.97
2023-03-03T21:55:58.237Z,85.10
2023-03-03T21:58:46.988Z,97.90
2023-03-03T22:01:37.747Z,100.28
2023-03-03T22:04:26.027Z,99.47
2023-03-03T22:07:13.947Z,103.63
2023-03-03T22:10:01.583Z,99.82
2023-03-03T22:12:49.406Z,96.13
2023-03-03T22:15:37.170Z,90.93
2023-03-03T22:18:24.924Z,82.40
2023-03-03T22:21:12.640Z,80.32
2023-03-03T22:24:00.370Z,65.13
2023-03-03T22:26:48.022Z,66.82
2023-03-03T22:29:35.723Z,77.28
2023-03-03T22:32:23.494Z,70.15
2023-03-03T22:35:11.407Z,69.00
2023-03-03T22:38:01.651Z,76.85
2023-03-03T22:40:49.382Z,70.75
2023-03-03T22:43:37.442Z,65.40
2023-03-03T22:46:25.299Z,56.30
2023-03-03T22:49:13.009Z,46.78
2023-03-03T22:52:02.819Z,49.67
2023-03-03T22:54:53.001Z,51.60
2023-03-03T22:57:40.769Z,51.42
2023-03-03T23:00:28.741Z,43.30
2023-03-03T23:03:16.610Z,57.17
2023-03-03T23:06:04.666Z,49.35
2023-03-03T23:08:52.426Z,60.05
2023-03-03T23:11:40.125Z,53.13
2023-03-03T23:14:28.193Z,48.55
2023-03-03T23:17:18.920Z,55.72
2023-03-03T23:20:07.407Z,50.03
2023-03-03T23:22:55.051Z,49.42
2023-03-03T23:25:42.719Z,51.92
2023-03-03T23:28:30.578Z,59.33
2023-03-03T23:31:18.435Z,50.75
2023-03-03T23:34:06.509Z,52.25
2023-03-03T23:36:54.191Z,56.63
2023-03-03T23:39:41.932Z,48.22
2023-03-03T23:42:30.898Z,52.25
2023-03-03T23:45:18.838Z,66.18
2023-03-03T23:48:07.111Z,69.30
2023-03-03T23:50:54.863Z,79.90
2023-03-03T23:53:42.464Z,65.55
2023-03-03T23:56:30.279Z,59.70
2023-03-03T23:59:18.168Z,52.70
